createdAt,value
2023-01-02T00:00:20.897Z,4.93
2023-01-02T00:03:23.276Z,5.05
2023-01-02T00:06:25.267Z,6.65
2023-01-02T00:09:26.956Z,6.10
2023-01-02T00:12:28.692Z,6.40
2023-01-02T00:15:30.426Z,5.93
2023-01-02T00:18:32.152Z,5.88
2023-01-02T00:21:33.848Z,5.50
2023-01-02T00:24:36.023Z,5.93
2023-01-02T00:27:37.678Z,5.28
2023-01-02T00:30:39.339Z,4.70
2023-01-02T00:33:41.037Z,6.15
2023-01-02T00:36:42.695Z,6.53
2023-01-02T00:39:44.580Z,5.63
2023-01-02T00:42:46.256Z,6.60
2023-01-02T00:45:48.855Z,7.15
2023-01-02T00:48:50.527Z,6.18
2023-01-02T00:51:52.277Z,5.90
2023-01-02T00:54:53.926Z,5.35
2023-01-02T00:57:55.605Z,5.97
2023-01-02T01:00:57.326Z,5.05
2023-01-02T01:03:59.121Z,5.32
2023-01-02T01:07:00.940Z,6.18
2023-01-02T01:10:02.574Z,5.72
2023-01-02T01:13:04.884Z,6.80
2023-01-02T01:16:09.547Z,5.65
2023-01-02T01:19:11.678Z,5.43
2023-01-02T01:22:13.290Z,5.43
2023-01-02T01:25:15.002Z,4.53
2023-01-02T01:28:16.692Z,5.28
2023-01-02T01:31:18.430Z,5.40
2023-01-02T01:34:20.208Z,6.38
2023-01-02T01:37:21.894Z,7.25
2023-01-02T01:40:23.541Z,5.90
2023-01-02T01:43:43.675Z,7.05
2023-01-02T01:46:47.347Z,6.07
2023-01-02T01:49:52.734Z,5.13
2023-01-02T01:53:00.986Z,6.20
2023-01-02T01:56:06.468Z,6.57
2023-01-02T01:59:10.638Z,5.38
2023-01-02T02:02:13.106Z,4.78
2023-01-02T02:05:19.633Z,4.97
2023-01-02T02:08:35.221Z,5.22
2023-01-02T02:11:36.968Z,6.63
2023-01-02T02:14:38.612Z,5.38
2023-01-02T02:18:03.587Z,5.00
2023-01-02T02:21:38.130Z,7.18
2023-01-02T02:24:54.387Z,5.85
2023-01-02T02:28:08.163Z,6.53
2023-01-02T02:31:27.392Z,6.72
2023-01-02T02:34:51.623Z,5.22
2023-01-02T02:38:03.253Z,6.63
2023-01-02T02:41:29.232Z,5.22
2023-01-02T02:44:30.812Z,4.97
2023-01-02T02:47:52.093Z,5.75
2023-01-02T02:51:01.060Z,5.00
2023-01-02T02:54:09.016Z,4.60
2023-01-02T02:57:13.639Z,5.20
2023-01-02T03:00:19.674Z,4.65
2023-01-02T03:03:23.476Z,4.95
2023-01-02T03:06:45.619Z,4.93
2023-01-02T03:10:29.409Z,5.43
2023-01-02T03:13:41.650Z,5.28
2023-01-02T03:16:47.337Z,4.30
2023-01-02T03:19:54.827Z,5.32
2023-01-02T03:23:01.748Z,5.97
2023-01-02T03:26:05.063Z,5.25
2023-01-02T03:29:12.659Z,6.13
2023-01-02T03:32:22.269Z,5.72
2023-01-02T03:35:31.356Z,5.60
2023-01-02T03:38:47.871Z,4.63
2023-01-02T03:42:12.075Z,4.53
2023-01-02T03:45:31.196Z,5.22
2023-01-02T03:48:49.101Z,6.60
2023-01-02T03:51:51.186Z,4.93
2023-01-02T03:54:54.881Z,4.93
2023-01-02T03:58:23.073Z,6.13
2023-01-02T04:02:14.009Z,5.40
2023-01-02T04:05:21.667Z,5.50
2023-01-02T04:08:30.028Z,4.95
2023-01-02T04:11:34.091Z,5.30
2023-01-02T04:14:43.344Z,6.03
2023-01-02T04:17:53.236Z,4.95
2023-01-02T04:20:59.514Z,6.65
2023-01-02T04:24:27.925Z,4.68
2023-01-02T04:27:36.003Z,6.90
2023-01-02T04:30:42.985Z,5.00
2023-01-02T04:33:52.048Z,5.93
2023-01-02T04:36:53.753Z,5.07
2023-01-02T04:39:58.616Z,5.68
2023-01-02T04:43:00.404Z,4.13
2023-01-02T04:46:02.244Z,4.53
2023-01-02T04:49:04.006Z,7.50
2023-01-02T04:52:05.778Z,4.75
2023-01-02T04:55:09.784Z,5.05
2023-01-02T04:58:11.429Z,4.80
2023-01-02T05:01:15.964Z,5.20
2023-01-02T05:04:17.822Z,4.60
2023-01-02T05:07:19.603Z,5.25
2023-01-02T05:10:21.513Z,4.70
2023-01-02T05:13:23.420Z,6.00
2023-01-02T05:16:25.143Z,5.53
2023-01-02T05:19:26.792Z,5.82
2023-01-02T05:22:47.222Z,5.35
2023-01-02T05:25:48.787Z,6.20
2023-01-02T05:28:53.236Z,5.30
2023-01-02T05:31:54.866Z,6.15
2023-01-02T05:34:56.442Z,4.68
2023-01-02T05:37:58.211Z,6.05
2023-01-02T05:41:01.745Z,5.22
2023-01-02T05:44:03.452Z,6.82
2023-01-02T05:47:06.158Z,4.95
2023-01-02T05:50:08.486Z,4.75
2023-01-02T05:53:10.128Z,4.80
2023-01-02T05:56:17.486Z,4.30
2023-01-02T05:59:19.246Z,6.65
2023-01-02T06:02:20.959Z,5.60
2023-01-02T06:05:22.630Z,5.55
2023-01-02T06:08:24.320Z,5.03
2023-01-02T06:11:26.843Z,5.32
2023-01-02T06:14:28.495Z,5.88
2023-01-02T06:17:30.103Z,4.63
2023-01-02T06:20:31.727Z,4.60
2023-01-02T06:23:33.568Z,4.38
2023-01-02T06:26:35.684Z,5.05
2023-01-02T06:29:37.376Z,4.28
2023-01-02T06:32:39.071Z,4.85
2023-01-02T06:35:41.486Z,5.43
2023-01-02T06:38:44.066Z,6.57
2023-01-02T06:41:45.670Z,6.97
2023-01-02T06:44:47.331Z,4.50
2023-01-02T06:47:56.752Z,5.40
2023-01-02T06:51:04.068Z,4.75
2023-01-02T06:54:05.870Z,4.85
2023-01-02T06:57:07.611Z,6.15
2023-01-02T07:00:10.118Z,5.50
2023-01-02T07:03:11.725Z,4.93
2023-01-02T07:06:21.339Z,5.30
2023-01-02T07:09:23.046Z,6.40
2023-01-02T07:12:24.656Z,5.82
2023-01-02T07:15:26.313Z,5.75
2023-01-02T07:18:27.997Z,5.07
2023-01-02T07:21:30.038Z,5.43
2023-01-02T07:24:32.025Z,5.25
2023-01-02T07:27:33.732Z,4.95
2023-01-02T07:30:35.331Z,11.57
2023-01-02T07:33:37.295Z,5.43
2023-01-02T07:36:38.886Z,6.72
2023-01-02T07:39:40.498Z,6.35
2023-01-02T07:42:42.112Z,6.10
2023-01-02T07:45:49.529Z,8.02
2023-01-02T07:48:51.839Z,5.68
2023-01-02T07:51:53.516Z,7.50
2023-01-02T07:54:55.203Z,5.85
2023-01-02T07:57:56.833Z,4.45
2023-01-02T08:01:05.242Z,5.70
2023-01-02T08:04:07.704Z,6.25
2023-01-02T08:07:10.190Z,5.78
2023-01-02T08:10:12.425Z,5.20
2023-01-02T08:13:14.058Z,6.25
2023-01-02T08:16:21.492Z,4.68
2023-01-02T08:19:23.210Z,4.63
2023-01-02T08:22:25.008Z,6.13
2023-01-02T08:25:26.724Z,8.25
2023-01-02T08:28:32.198Z,6.10
2023-01-02T08:31:35.799Z,6.07
2023-01-02T08:34:40.411Z,6.82
2023-01-02T08:37:46.699Z,7.65
2023-01-02T08:40:53.990Z,6.30
2023-01-02T08:43:55.643Z,6.13
2023-01-02T08:46:58.226Z,4.78
2023-01-02T08:49:59.953Z,5.18
2023-01-02T08:53:01.650Z,4.93
2023-01-02T08:56:29.080Z,5.75
2023-01-02T08:59:31.072Z,6.97
2023-01-02T09:02:33.070Z,6.28
2023-01-02T09:05:36.606Z,6.72
2023-01-02T09:08:38.304Z,5.97
2023-01-02T09:11:50.393Z,6.28
2023-01-02T09:14:52.539Z,8.32
2023-01-02T09:17:54.176Z,6.55
2023-01-02T09:20:55.952Z,6.47
2023-01-02T09:23:57.740Z,6.07
2023-01-02T09:26:59.415Z,4.68
2023-01-02T09:30:01.140Z,5.47
2023-01-02T09:33:02.939Z,5.65
2023-01-02T09:36:07.035Z,7.47
2023-01-02T09:39:08.815Z,6.20
2023-01-02T09:42:15.734Z,5.32
2023-01-02T09:45:17.678Z,7.72
2023-01-02T09:48:21.689Z,7.03
2023-01-02T09:51:23.371Z,6.03
2023-01-02T09:54:31.489Z,8.05
2023-01-02T09:58:06.436Z,6.03
2023-01-02T10:01:32.264Z,5.82
2023-01-02T10:05:01.367Z,7.43
2023-01-02T10:08:18.137Z,5.22
2023-01-02T10:11:35.974Z,6.97
2023-01-02T10:15:15.824Z,6.53
2023-01-02T10:18:26.656Z,5.47
2023-01-02T10:21:34.372Z,8.93
2023-01-02T10:24:48.691Z,9.13
2023-01-02T10:27:54.675Z,8.38
2023-01-02T10:31:07.022Z,6.13
2023-01-02T10:34:45.279Z,8.90
2023-01-02T10:37:46.972Z,9.43
2023-01-02T10:40:50.706Z,8.75
2023-01-02T10:43:58.958Z,6.63
2023-01-02T10:47:24.698Z,8.90
2023-01-02T10:50:36.398Z,6.65
2023-01-02T10:53:38.463Z,8.95
2023-01-02T10:56:41.236Z,7.40
2023-01-02T10:59:44.062Z,9.32
2023-01-02T11:02:52.218Z,8.27
2023-01-02T11:06:05.835Z,7.05
2023-01-02T11:09:29.912Z,7.35
2023-01-02T11:12:32.988Z,5.50
2023-01-02T11:15:42.137Z,8.68
2023-01-02T11:18:56.653Z,6.18
2023-01-02T11:21:58.357Z,5.10
2023-01-02T11:25:04.085Z,8.90
2023-01-02T11:28:07.347Z,6.95
2023-01-02T11:31:11.186Z,8.40
2023-01-02T11:34:21.998Z,7.85
2023-01-02T11:37:24.622Z,7.65
2023-01-02T11:40:29.406Z,9.20
2023-01-02T11:43:50.119Z,7.22
2023-01-02T11:46:53.197Z,6.55
2023-01-02T11:49:55.031Z,9.02
2023-01-02T11:53:11.854Z,8.68
2023-01-02T11:56:25.253Z,11.10
2023-01-02T11:59:39.606Z,7.03
2023-01-02T12:02:44.399Z,8.02
2023-01-02T12:05:49.295Z,9.03
2023-01-02T12:09:30.270Z,6.97
2023-01-02T12:12:47.058Z,8.05
2023-01-02T12:15:57.666Z,6.10
2023-01-02T12:19:32.919Z,7.20
2023-01-02T12:23:07.709Z,10.00
2023-01-02T12:26:13.531Z,7.60
2023-01-02T12:29:46.010Z,8.18
2023-01-02T12:32:59.089Z,6.25
2023-01-02T12:39:43.113Z,7.53
2023-01-02T12:43:09.239Z,7.15
2023-01-02T12:46:50.102Z,6.30
2023-01-02T12:49:54.650Z,7.13
2023-01-02T12:53:24.992Z,7.72
2023-01-02T12:56:42.630Z,6.50
2023-01-02T13:00:02.586Z,8.65
2023-01-02T13:03:29.556Z,8.63
2023-01-02T13:09:50.239Z,7.22
2023-01-02T13:12:54.260Z,6.78
2023-01-02T13:16:03.418Z,8.73
2023-01-02T13:19:33.512Z,8.38
2023-01-02T13:23:00.363Z,7.85
2023-01-02T13:26:06.345Z,6.18
2023-01-02T13:29:08.259Z,6.30
2023-01-02T13:32:14.681Z,8.02
2023-01-02T13:35:16.556Z,8.25
2023-01-02T13:38:19.744Z,11.00
2023-01-02T13:41:22.372Z,7.63
2023-01-02T13:44:33.031Z,9.10
2023-01-02T13:47:38.793Z,7.53
2023-01-02T13:50:40.921Z,6.88
2023-01-02T13:53:46.110Z,7.03
2023-01-02T13:57:18.022Z,7.90
2023-01-02T14:00:37.015Z,9.18
2023-01-02T14:03:38.967Z,10.70
2023-01-02T14:06:47.199Z,7.78
2023-01-02T14:10:10.278Z,7.45
2023-01-02T14:13:20.226Z,7.43
2023-01-02T14:16:57.045Z,7.65
2023-01-02T14:20:21.569Z,8.68
2023-01-02T14:23:33.693Z,7.20
2023-01-02T14:26:37.501Z,6.57
2023-01-02T14:29:57.401Z,7.80
2023-01-02T14:33:01.261Z,7.32
2023-01-02T14:36:08.965Z,7.82
2023-01-02T14:39:40.118Z,7.22
2023-01-02T14:43:01.379Z,7.30
2023-01-02T14:46:15.889Z,8.18
2023-01-02T14:49:26.536Z,6.90
2023-01-02T14:52:41.070Z,7.45
2023-01-02T14:55:47.499Z,5.78
2023-01-02T15:05:27.079Z,7.07
2023-01-02T15:08:49.605Z,6.50
2023-01-02T15:12:21.483Z,5.80
2023-01-02T15:15:38.759Z,6.85
2023-01-02T15:18:49.492Z,9.10
2023-01-02T15:21:51.341Z,6.15
2023-01-02T15:24:56.276Z,7.35
2023-01-02T15:27:58.085Z,7.22
2023-01-02T15:31:10.817Z,6.72
2023-01-02T15:34:24.789Z,8.32
2023-01-02T15:37:26.721Z,6.57
2023-01-02T15:40:35.508Z,6.40
2023-01-02T15:43:58.361Z,8.15
2023-01-02T15:47:00.651Z,7.75
2023-01-02T15:50:11.009Z,7.57
2023-01-02T15:53:23.275Z,7.13
2023-01-02T15:56:37.032Z,6.20
2023-01-02T15:59:39.963Z,6.10
2023-01-02T16:02:44.412Z,5.90
2023-01-02T16:05:54.891Z,6.88
2023-01-02T16:08:59.296Z,7.43
2023-01-02T16:12:03.387Z,5.47
2023-01-02T16:15:06.013Z,6.80
2023-01-02T16:18:13.026Z,7.25
2023-01-02T16:21:16.269Z,10.30
2023-01-02T16:24:28.758Z,9.38
2023-01-02T16:27:36.127Z,8.38
2023-01-02T16:30:41.129Z,8.13
2023-01-02T16:33:44.055Z,7.50
2023-01-02T16:37:11.409Z,7.60
2023-01-02T16:41:01.255Z,6.57
2023-01-02T16:43:47.687Z,7.07
2023-01-02T16:46:50.641Z,6.32
2023-01-02T16:49:56.897Z,5.85
2023-01-02T16:53:03.064Z,5.90
2023-01-02T16:56:05.608Z,4.90
2023-01-02T16:59:07.333Z,6.07
2023-01-02T17:02:14.269Z,4.40
2023-01-02T17:05:25.942Z,6.10
2023-01-02T17:08:39.498Z,5.80
2023-01-02T17:12:00.202Z,5.05
2023-01-02T17:15:02.325Z,5.53
2023-01-02T17:18:05.158Z,5.38
2023-01-02T17:21:07.020Z,7.35
2023-01-02T17:24:14.024Z,6.57
2023-01-02T17:27:16.190Z,5.45
2023-01-02T17:30:18.529Z,6.65
2023-01-02T17:33:20.418Z,5.60
2023-01-02T17:36:22.448Z,5.60
2023-01-02T17:39:25.409Z,5.72
2023-01-02T17:42:27.328Z,5.10
2023-01-02T17:45:29.247Z,4.93
2023-01-02T17:48:31.141Z,5.13
2023-01-02T17:51:33.455Z,6.10
2023-01-02T17:54:38.295Z,6.22
2023-01-02T17:57:40.869Z,6.63
2023-01-02T18:00:45.810Z,6.65
2023-01-02T18:03:49.108Z,4.78
2023-01-02T18:06:50.836Z,5.18
2023-01-02T18:10:08.134Z,4.15
2023-01-02T18:13:11.400Z,4.97
2023-01-02T18:16:22.235Z,5.32
2023-01-02T18:19:33.309Z,4.45
2023-01-02T18:22:35.590Z,4.10
2023-01-02T18:25:37.464Z,4.50
2023-01-02T18:28:41.569Z,4.20
2023-01-02T18:31:44.525Z,4.65
2023-01-02T18:34:48.628Z,6.40
2023-01-02T18:37:53.856Z,5.15
2023-01-02T18:40:56.161Z,5.82
2023-01-02T18:44:06.999Z,10.15
2023-01-02T18:47:30.519Z,6.38
2023-01-02T18:50:34.911Z,5.80
2023-01-02T18:53:47.420Z,11.82
2023-01-02T18:56:49.173Z,5.70
2023-01-02T18:59:51.704Z,5.95
2023-01-02T19:03:00.533Z,6.40
2023-01-02T19:06:02.250Z,5.28
2023-01-02T19:09:16.632Z,6.40
2023-01-02T19:12:45.743Z,5.07
2023-01-02T19:15:51.684Z,5.10
2023-01-02T19:18:57.168Z,7.43
2023-01-02T19:22:02.022Z,6.10
2023-01-02T19:25:15.451Z,6.80
2023-01-02T19:28:23.361Z,6.18
2023-01-02T19:31:29.106Z,6.75
2023-01-02T19:34:47.714Z,5.97
2023-01-02T19:37:49.472Z,4.93
2023-01-02T19:40:51.176Z,5.43
2023-01-02T19:43:52.864Z,5.07
2023-01-02T19:46:54.526Z,4.68
2023-01-02T19:49:59.917Z,5.32
2023-01-02T19:53:01.630Z,6.28
2023-01-02T19:56:03.335Z,5.90
2023-01-02T19:59:09.420Z,5.18
2023-01-02T20:02:16.925Z,5.68
2023-01-02T20:05:22.520Z,6.35
2023-01-02T20:08:24.850Z,4.43
2023-01-02T20:11:45.158Z,4.63
2023-01-02T20:14:46.953Z,5.15
2023-01-02T20:17:51.711Z,7.78
2023-01-02T20:20:53.444Z,6.30
2023-01-02T20:23:59.307Z,5.80
2023-01-02T20:27:02.485Z,4.75
2023-01-02T20:30:07.280Z,4.40
2023-01-02T20:33:15.739Z,4.97
2023-01-02T20:36:17.443Z,4.38
2023-01-02T20:39:19.113Z,4.03
2023-01-02T20:42:21.922Z,4.53
2023-01-02T20:45:23.641Z,4.70
2023-01-02T20:48:25.905Z,4.30
2023-01-02T20:51:28.074Z,4.57
2023-01-02T20:54:30.125Z,4.72
2023-01-02T20:57:32.777Z,4.60
2023-01-02T21:00:53.631Z,4.75
2023-01-02T21:03:55.438Z,5.30
2023-01-02T21:06:57.198Z,3.40
2023-01-02T21:10:01.006Z,3.53
2023-01-02T21:13:09.643Z,3.75
2023-01-02T21:16:11.522Z,4.63
2023-01-02T21:19:13.636Z,4.70
2023-01-02T21:22:15.339Z,4.57
2023-01-02T21:25:39.839Z,4.45
2023-01-02T21:28:47.419Z,4.95
2023-01-02T21:31:52.308Z,4.30
2023-01-02T21:34:53.964Z,3.80
2023-01-02T21:37:56.070Z,3.92
2023-01-02T21:41:16.893Z,3.45
2023-01-02T21:44:20.155Z,4.10
2023-01-02T21:47:28.161Z,3.63
2023-01-02T21:50:30.021Z,4.22
2023-01-02T21:53:31.891Z,3.72
2023-01-02T21:56:34.721Z,3.70
2023-01-02T21:59:36.673Z,3.67
2023-01-02T22:02:39.016Z,4.05
2023-01-02T22:05:41.528Z,3.90
2023-01-02T22:08:43.302Z,4.55
2023-01-02T22:11:57.053Z,3.83
2023-01-02T22:14:58.918Z,3.28
2023-01-02T22:18:00.601Z,3.70
2023-01-02T22:21:02.309Z,3.30
2023-01-02T22:24:04.167Z,4.10
2023-01-02T22:27:07.502Z,3.70
2023-01-02T22:30:21.594Z,3.25
2023-01-02T22:33:26.865Z,3.65
2023-01-02T22:36:31.536Z,4.07
2023-01-02T22:39:33.265Z,3.97
2023-01-02T22:43:10.142Z,3.63
2023-01-02T22:46:20.269Z,4.40
2023-01-02T22:49:25.663Z,3.58
2023-01-02T22:52:28.210Z,4.00
2023-01-02T22:55:29.936Z,2.55
2023-01-02T22:58:32.016Z,3.10
2023-01-02T23:01:39.995Z,3.53
2023-01-02T23:04:42.205Z,4.18
2023-01-02T23:07:44.513Z,4.28
2023-01-02T23:10:46.361Z,3.58
2023-01-02T23:13:56.065Z,3.80
2023-01-02T23:17:16.732Z,3.85
2023-01-02T23:20:18.660Z,2.90
2023-01-02T23:23:21.140Z,3.50
2023-01-02T23:26:26.856Z,3.08
2023-01-02T23:29:28.812Z,2.97
2023-01-02T23:32:30.542Z,2.75
2023-01-02T23:35:32.392Z,2.92
2023-01-02T23:38:35.896Z,3.33
2023-01-02T23:41:38.749Z,2.70
2023-01-02T23:44:41.113Z,3.05
2023-01-02T23:47:42.821Z,2.70
2023-01-02T23:51:01.703Z,3.67
2023-01-02T23:54:03.925Z,3.05
2023-01-02T23:57:05.642Z,3.17
